createdAt,value
2023-05-09T00:02:02.209Z,18.40
2023-05-09T00:04:29.263Z,18.45
2023-05-09T00:06:55.957Z,18.49
2023-05-09T00:09:22.447Z,18.35
2023-05-09T00:11:48.983Z,18.24
2023-05-09T00:14:15.706Z,18.25
2023-05-09T00:16:42.242Z,18.09
2023-05-09T00:19:08.782Z,18.14
2023-05-09T00:21:35.323Z,17.95
2023-05-09T00:24:01.857Z,18.11
2023-05-09T00:26:28.669Z,18.14
2023-05-09T00:28:55.307Z,18.06
2023-05-09T00:31:21.903Z,17.96
2023-05-09T00:33:48.568Z,18.11
2023-05-09T00:36:15.074Z,18.05
2023-05-09T00:38:41.589Z,18.06
2023-05-09T00:41:08.283Z,17.85
2023-05-09T00:43:34.833Z,18.07
2023-05-09T00:46:01.443Z,18.10
2023-05-09T00:48:28.073Z,18.18
2023-05-09T00:50:54.719Z,18.01
2023-05-09T00:53:21.299Z,18.10
2023-05-09T00:55:48.517Z,18.10
2023-05-09T00:58:15.104Z,18.08
2023-05-09T01:00:43.002Z,18.08
2023-05-09T01:03:09.904Z,17.98
2023-05-09T01:05:56.591Z,18.13
2023-05-09T01:08:47.280Z,18.27
2023-05-09T01:11:32.773Z,18.19
2023-05-09T01:14:12.537Z,18.04
2023-05-09T01:16:43.167Z,17.95
2023-05-09T01:19:15.970Z,17.57
2023-05-09T01:21:44.440Z,17.76
2023-05-09T01:24:23.263Z,17.86
2023-05-09T01:27:11.500Z,18.02
2023-05-09T01:29:40.103Z,17.90
2023-05-09T01:32:15.469Z,17.86
2023-05-09T01:34:43.512Z,17.75
2023-05-09T01:37:11.361Z,17.68
2023-05-09T01:39:39.932Z,17.60
2023-05-09T01:42:08.737Z,17.73
2023-05-09T01:44:40.219Z,17.37
2023-05-09T01:47:07.976Z,17.57
2023-05-09T01:49:36.297Z,17.50
2023-05-09T01:52:08.866Z,17.56
2023-05-09T01:54:36.092Z,17.45
2023-05-09T01:57:03.499Z,17.47
2023-05-09T01:59:31.106Z,17.58
2023-05-09T02:01:57.850Z,17.47
2023-05-09T02:04:24.926Z,17.48
2023-05-09T02:06:52.111Z,17.43
2023-05-09T02:09:19.516Z,17.47
2023-05-09T02:11:46.889Z,17.16
2023-05-09T02:14:13.986Z,17.34
2023-05-09T02:16:40.857Z,17.38
2023-05-09T02:19:07.462Z,17.50
2023-05-09T02:21:34.079Z,17.38
2023-05-09T02:24:00.682Z,17.33
2023-05-09T02:26:28.663Z,17.10
2023-05-09T02:28:55.928Z,17.32
2023-05-09T02:31:24.467Z,17.30
2023-05-09T02:33:52.729Z,17.29
2023-05-09T02:36:19.828Z,17.38
2023-05-09T02:38:46.474Z,17.22
2023-05-09T02:41:14.331Z,17.10
2023-05-09T02:43:40.980Z,17.18
2023-05-09T02:46:08.185Z,17.02
2023-05-09T02:48:35.271Z,16.95
2023-05-09T02:51:01.902Z,17.03
2023-05-09T02:53:28.493Z,17.11
2023-05-09T02:55:55.076Z,17.15
2023-05-09T02:58:21.647Z,17.07
2023-05-09T03:00:48.171Z,16.98
2023-05-09T03:03:15.058Z,16.90
2023-05-09T03:05:41.642Z,16.89
2023-05-09T03:08:08.214Z,16.95
2023-05-09T03:10:35.188Z,16.85
2023-05-09T03:13:02.426Z,17.00
2023-05-09T03:15:29.024Z,16.81
2023-05-09T03:17:58.350Z,16.82
2023-05-09T03:20:26.352Z,16.95
2023-05-09T03:22:53.159Z,16.82
2023-05-09T03:25:20.568Z,16.90
2023-05-09T03:27:47.093Z,16.86
2023-05-09T03:30:15.619Z,16.82
2023-05-09T03:32:44.283Z,16.64
2023-05-09T03:35:11.099Z,16.60
2023-05-09T03:37:37.836Z,16.54
2023-05-09T03:40:07.331Z,16.63
2023-05-09T03:42:39.695Z,16.60
2023-05-09T03:45:06.672Z,16.62
2023-05-09T03:47:33.400Z,16.62
2023-05-09T03:50:00.584Z,16.51
2023-05-09T03:52:27.355Z,16.50
2023-05-09T03:54:54.562Z,16.59
2023-05-09T03:57:21.266Z,16.60
2023-05-09T03:59:50.268Z,16.51
2023-05-09T04:02:16.946Z,16.53
2023-05-09T04:04:46.550Z,16.54
2023-05-09T04:07:13.546Z,16.70
2023-05-09T04:09:42.401Z,16.59
2023-05-09T04:12:09.156Z,16.72
2023-05-09T04:14:35.675Z,16.62
2023-05-09T04:17:02.651Z,16.40
2023-05-09T04:19:29.574Z,16.56
2023-05-09T04:21:56.110Z,16.63
2023-05-09T04:24:22.616Z,16.62
2023-05-09T04:26:49.950Z,16.76
2023-05-09T04:29:20.841Z,16.67
2023-05-09T04:31:52.533Z,16.66
2023-05-09T04:34:20.608Z,16.77
2023-05-09T04:36:47.819Z,16.71
2023-05-09T04:39:14.453Z,16.73
2023-05-09T04:41:50.063Z,16.89
2023-05-09T04:44:17.422Z,16.67
2023-05-09T04:46:45.052Z,16.64
2023-05-09T04:49:11.893Z,16.72
2023-05-09T04:51:38.420Z,16.77
2023-05-09T04:54:04.943Z,16.69
2023-05-09T04:56:34.953Z,16.82
2023-05-09T04:59:02.755Z,16.93
2023-05-09T05:01:29.841Z,17.00
2023-05-09T05:03:56.878Z,17.01
2023-05-09T05:06:23.400Z,16.93
2023-05-09T05:08:50.239Z,17.11
2023-05-09T05:11:17.940Z,17.10
2023-05-09T05:13:45.035Z,17.08
2023-05-09T05:16:11.729Z,17.00
2023-05-09T05:18:38.339Z,17.28
2023-05-09T05:21:05.756Z,17.17
2023-05-09T05:23:32.272Z,17.15
2023-05-09T05:25:58.822Z,17.33
2023-05-09T05:28:25.530Z,17.22
2023-05-09T05:30:52.495Z,17.16
2023-05-09T05:33:19.061Z,17.29
2023-05-09T05:35:46.007Z,17.38
2023-05-09T05:38:12.660Z,17.42
2023-05-09T05:40:39.419Z,17.48
2023-05-09T05:43:07.410Z,17.65
2023-05-09T05:45:36.061Z,17.68
2023-05-09T05:48:05.254Z,17.87
2023-05-09T05:50:32.535Z,17.84
2023-05-09T05:52:59.496Z,17.77
2023-05-09T05:55:26.279Z,17.95
2023-05-09T05:57:52.965Z,17.93
2023-05-09T06:00:20.658Z,18.23
2023-05-09T06:02:53.519Z,18.33
2023-05-09T06:05:28.443Z,18.33
2023-05-09T06:07:55.128Z,18.45
2023-05-09T06:10:21.706Z,18.50
2023-05-09T06:12:48.361Z,18.50
2023-05-09T06:15:15.193Z,18.56
2023-05-09T06:17:46.797Z,18.86
2023-05-09T06:20:13.355Z,19.07
2023-05-09T06:22:39.993Z,20.20
2023-05-09T06:25:09.444Z,24.41
2023-05-09T06:27:37.006Z,28.32
2023-05-09T06:30:14.205Z,30.88
2023-05-09T06:32:50.216Z,32.21
2023-05-09T06:35:17.040Z,33.12
2023-05-09T06:37:43.560Z,33.55
2023-05-09T06:40:10.326Z,35.23
2023-05-09T06:42:36.838Z,35.95
2023-05-09T06:45:03.531Z,36.48
2023-05-09T06:47:30.085Z,35.84
2023-05-09T06:49:56.605Z,34.21
2023-05-09T06:52:23.109Z,31.57
2023-05-09T06:54:49.614Z,29.00
2023-05-09T06:57:16.144Z,26.95
2023-05-09T06:59:44.719Z,25.34
2023-05-09T07:02:11.502Z,24.59
2023-05-09T07:04:38.055Z,23.85
2023-05-09T07:07:04.707Z,23.75
2023-05-09T07:09:31.260Z,23.84
2023-05-09T07:11:57.788Z,23.40
2023-05-09T07:14:24.346Z,23.35
2023-05-09T07:16:50.881Z,23.60
2023-05-09T07:19:17.461Z,25.62
2023-05-09T07:21:44.053Z,29.68
2023-05-09T07:24:10.550Z,31.79
2023-05-09T07:26:37.035Z,32.73
2023-05-09T07:29:04.028Z,32.58
2023-05-09T07:31:31.006Z,33.33
2023-05-09T07:33:57.647Z,33.97
2023-05-09T07:36:24.176Z,35.38
2023-05-09T07:38:52.711Z,35.53
2023-05-09T07:41:19.417Z,35.32
2023-05-09T07:43:46.002Z,35.15
2023-05-09T07:46:12.619Z,35.55
2023-05-09T07:48:39.272Z,35.28
2023-05-09T07:51:05.796Z,36.54
2023-05-09T07:53:32.354Z,36.82
2023-05-09T07:55:59.038Z,37.04
2023-05-09T07:58:25.713Z,37.47
2023-05-09T08:00:52.257Z,37.46
2023-05-09T08:03:20.768Z,37.03
2023-05-09T08:05:47.441Z,37.05
2023-05-09T08:08:14.137Z,37.50
2023-05-09T08:10:40.636Z,37.01
2023-05-09T08:13:07.193Z,37.17
2023-05-09T08:15:33.743Z,38.35
2023-05-09T08:18:00.315Z,38.83
2023-05-09T08:20:26.879Z,38.87
2023-05-09T08:22:53.391Z,38.73
2023-05-09T08:25:20.839Z,38.89
2023-05-09T08:27:47.568Z,38.63
2023-05-09T08:30:14.746Z,39.20
2023-05-09T08:32:41.334Z,38.64
2023-05-09T08:35:09.054Z,39.54
2023-05-09T08:37:38.642Z,39.19
2023-05-09T08:40:08.658Z,39.10
2023-05-09T08:42:36.978Z,39.94
2023-05-09T08:45:09.702Z,40.44
2023-05-09T08:47:37.482Z,40.63
2023-05-09T08:50:05.791Z,41.02
2023-05-09T08:52:32.976Z,41.84
2023-05-09T08:55:06.247Z,42.06
2023-05-09T08:57:35.316Z,41.45
2023-05-09T09:00:04.683Z,40.97
2023-05-09T09:02:31.362Z,39.89
2023-05-09T09:04:58.064Z,39.34
2023-05-09T09:07:25.787Z,39.89
2023-05-09T09:09:52.401Z,39.52
2023-05-09T09:12:22.652Z,40.16
2023-05-09T09:14:52.959Z,40.56
2023-05-09T09:17:21.472Z,40.43
2023-05-09T09:19:50.114Z,39.79
2023-05-09T09:22:18.801Z,39.12
2023-05-09T09:24:45.454Z,38.64
2023-05-09T09:27:11.961Z,37.94
2023-05-09T09:29:41.157Z,37.03
2023-05-09T09:32:07.902Z,37.66
2023-05-09T09:34:34.459Z,38.75
2023-05-09T09:37:01.044Z,39.85
2023-05-09T09:39:27.590Z,40.54
2023-05-09T09:41:54.095Z,39.70
2023-05-09T09:44:21.956Z,39.66
2023-05-09T09:46:53.376Z,39.68
2023-05-09T09:49:21.751Z,39.68
2023-05-09T09:51:55.488Z,39.48
2023-05-09T09:54:22.612Z,38.79
2023-05-09T09:56:53.252Z,39.10
2023-05-09T09:59:23.582Z,39.60
2023-05-09T10:01:55.232Z,39.04
2023-05-09T10:04:22.541Z,39.01
2023-05-09T10:06:53.763Z,38.13
2023-05-09T10:09:22.095Z,38.20
2023-05-09T10:11:52.074Z,38.20
2023-05-09T10:14:19.809Z,38.67
2023-05-09T10:16:50.727Z,38.58
2023-05-09T10:19:18.667Z,37.46
2023-05-09T10:21:54.853Z,36.99
2023-05-09T10:24:30.051Z,37.19
2023-05-09T10:27:04.189Z,37.68
2023-05-09T10:29:34.720Z,37.71
2023-05-09T10:32:08.413Z,38.51
2023-05-09T10:34:37.475Z,37.70
2023-05-09T10:37:04.610Z,37.27
2023-05-09T10:39:31.378Z,37.35
2023-05-09T10:41:59.100Z,36.15
2023-05-09T10:44:25.889Z,35.60
2023-05-09T10:46:53.067Z,36.02
2023-05-09T10:49:20.202Z,35.17
2023-05-09T10:51:46.894Z,34.85
2023-05-09T10:54:15.641Z,35.53
2023-05-09T10:56:42.220Z,36.07
2023-05-09T10:59:35.595Z,36.43
2023-05-09T11:02:03.434Z,36.80
2023-05-09T11:04:31.557Z,37.30
2023-05-09T11:06:59.764Z,36.86
2023-05-09T11:09:34.536Z,37.15
2023-05-09T11:12:07.140Z,36.56
2023-05-09T11:14:38.585Z,36.71
2023-05-09T11:17:07.272Z,36.47
2023-05-09T11:19:45.386Z,36.27
2023-05-09T11:22:17.037Z,35.97
2023-05-09T11:24:48.318Z,35.78
2023-05-09T11:27:25.973Z,36.13
2023-05-09T11:29:57.588Z,36.09
2023-05-09T11:32:30.501Z,36.44
2023-05-09T11:35:13.597Z,36.55
2023-05-09T11:37:58.058Z,36.26
2023-05-09T11:40:24.719Z,36.07
2023-05-09T11:42:58.340Z,36.76
2023-05-09T11:45:30.232Z,36.13
2023-05-09T11:47:57.316Z,36.36
2023-05-09T11:50:23.973Z,35.96
2023-05-09T11:52:50.649Z,35.55
2023-05-09T11:55:19.772Z,35.88
2023-05-09T11:57:49.072Z,36.43
2023-05-09T12:00:17.475Z,35.51
2023-05-09T12:02:45.637Z,35.37
2023-05-09T12:05:19.823Z,36.01
2023-05-09T12:07:47.133Z,35.85
2023-05-09T12:10:15.727Z,36.03
2023-05-09T12:12:44.869Z,36.13
2023-05-09T12:15:13.578Z,36.31
2023-05-09T12:17:44.188Z,36.70
2023-05-09T12:20:11.026Z,36.57
2023-05-09T12:22:37.820Z,36.32
2023-05-09T12:25:09.548Z,36.53
2023-05-09T12:27:37.231Z,36.19
2023-05-09T12:30:12.005Z,36.62
2023-05-09T12:32:40.312Z,36.14
2023-05-09T12:35:08.457Z,35.95
2023-05-09T12:37:35.112Z,36.04
2023-05-09T12:40:05.219Z,35.85
2023-05-09T12:42:32.711Z,36.37
2023-05-09T12:44:59.455Z,37.05
2023-05-09T12:47:29.946Z,37.15
2023-05-09T12:50:00.052Z,37.01
2023-05-09T12:52:33.841Z,36.29
2023-05-09T12:55:09.167Z,35.67
2023-05-09T12:57:35.873Z,35.69
2023-05-09T13:00:04.667Z,35.93
2023-05-09T13:02:35.802Z,35.83
2023-05-09T13:05:12.928Z,35.86
2023-05-09T13:07:44.858Z,34.79
2023-05-09T13:10:13.390Z,35.60
2023-05-09T13:12:44.424Z,35.65
2023-05-09T13:15:12.096Z,36.24
2023-05-09T13:17:38.797Z,35.99
2023-05-09T13:20:05.908Z,35.60
2023-05-09T13:22:33.022Z,36.16
2023-05-09T13:24:59.781Z,36.55
2023-05-09T13:27:27.858Z,36.40
2023-05-09T13:29:54.425Z,35.42
2023-05-09T13:32:21.268Z,35.30
2023-05-09T13:34:47.752Z,35.39
2023-05-09T13:37:14.345Z,36.21
2023-05-09T13:39:40.916Z,35.49
2023-05-09T13:42:07.690Z,35.28
2023-05-09T13:44:34.199Z,35.07
2023-05-09T13:47:00.762Z,35.02
2023-05-09T13:49:29.972Z,34.75
2023-05-09T13:51:56.458Z,34.70
2023-05-09T13:54:23.087Z,34.54
2023-05-09T13:56:51.192Z,35.05
2023-05-09T13:59:17.768Z,34.88
2023-05-09T14:01:44.254Z,35.15
2023-05-09T14:04:10.924Z,34.93
2023-05-09T14:06:37.543Z,34.41
2023-05-09T14:09:04.229Z,33.94
2023-05-09T14:11:30.711Z,33.73
2023-05-09T14:13:57.433Z,33.24
2023-05-09T14:16:23.977Z,32.49
2023-05-09T14:18:50.646Z,31.78
2023-05-09T14:21:17.108Z,31.33
2023-05-09T14:23:43.772Z,30.82
2023-05-09T14:26:10.325Z,30.43
2023-05-09T14:28:38.180Z,30.16
2023-05-09T14:31:04.806Z,29.76
2023-05-09T14:33:31.866Z,29.52
2023-05-09T14:35:58.459Z,29.09
2023-05-09T14:38:24.996Z,29.08
2023-05-09T14:40:51.518Z,28.83
2023-05-09T14:43:18.025Z,28.96
2023-05-09T14:45:44.498Z,28.75
2023-05-09T14:48:12.270Z,28.30
2023-05-09T14:50:39.975Z,28.01
2023-05-09T14:53:06.591Z,27.96
2023-05-09T14:55:33.418Z,28.05
2023-05-09T14:57:59.908Z,27.90
2023-05-09T15:00:27.142Z,28.11
2023-05-09T15:02:54.242Z,27.84
2023-05-09T15:05:20.892Z,27.65
2023-05-09T15:07:47.479Z,27.54
2023-05-09T15:10:14.723Z,27.58
2023-05-09T15:12:41.584Z,27.44
2023-05-09T15:15:16.952Z,27.38
2023-05-09T15:17:44.559Z,27.24
2023-05-09T15:20:12.103Z,27.25
2023-05-09T15:22:38.607Z,26.95
2023-05-09T15:25:06.306Z,27.09
2023-05-09T15:27:32.894Z,27.24
2023-05-09T15:29:59.382Z,27.08
2023-05-09T15:32:26.088Z,26.96
2023-05-09T15:34:52.864Z,27.08
2023-05-09T15:37:19.384Z,26.99
2023-05-09T15:39:46.316Z,27.07
2023-05-09T15:42:13.406Z,26.72
2023-05-09T15:44:40.821Z,26.73
2023-05-09T15:47:07.910Z,26.81
2023-05-09T15:49:34.589Z,26.83
2023-05-09T15:52:05.021Z,26.93
2023-05-09T15:54:32.374Z,26.80
2023-05-09T15:56:59.438Z,26.86
2023-05-09T15:59:26.501Z,26.76
2023-05-09T16:01:53.507Z,26.48
2023-05-09T16:04:20.201Z,26.77
2023-05-09T16:06:47.355Z,26.41
2023-05-09T16:09:13.849Z,26.54
2023-05-09T16:11:41.426Z,26.54
2023-05-09T16:14:11.320Z,26.56
2023-05-09T16:16:38.798Z,26.48
2023-05-09T16:19:06.375Z,26.57
2023-05-09T16:21:33.115Z,26.53
2023-05-09T16:24:03.295Z,26.67
2023-05-09T16:26:29.854Z,26.63
2023-05-09T16:28:56.661Z,26.51
2023-05-09T16:31:26.643Z,26.45
2023-05-09T16:33:54.227Z,26.23
2023-05-09T16:36:21.040Z,26.00
2023-05-09T16:38:47.514Z,26.03
2023-05-09T16:41:14.056Z,26.20
2023-05-09T16:43:40.700Z,25.97
2023-05-09T16:46:07.282Z,26.02
2023-05-09T16:48:33.809Z,26.04
2023-05-09T16:51:00.309Z,26.09
2023-05-09T16:53:27.810Z,26.15
2023-05-09T16:55:54.757Z,26.14
2023-05-09T16:58:21.293Z,26.01
2023-05-09T17:00:48.266Z,26.05
2023-05-09T17:03:14.805Z,26.11
2023-05-09T17:05:41.345Z,25.98
2023-05-09T17:08:08.072Z,25.96
2023-05-09T17:10:37.020Z,25.99
2023-05-09T17:13:07.671Z,25.98
2023-05-09T17:18:01.344Z,26.04
2023-05-09T17:20:28.876Z,25.90
2023-05-09T17:22:56.374Z,25.93
2023-05-09T17:25:22.983Z,25.87
2023-05-09T17:27:49.574Z,25.85
2023-05-09T17:30:16.596Z,25.82
2023-05-09T17:32:43.427Z,25.69
2023-05-09T17:35:10.598Z,25.64
2023-05-09T17:37:37.201Z,25.63
2023-05-09T17:40:05.245Z,25.56
2023-05-09T17:42:32.199Z,25.52
2023-05-09T17:44:58.688Z,25.64
2023-05-09T17:47:25.236Z,25.57
2023-05-09T17:49:52.107Z,25.55
2023-05-09T17:52:18.662Z,25.55
2023-05-09T17:54:45.257Z,25.55
2023-05-09T17:57:11.788Z,25.45
2023-05-09T17:59:40.563Z,25.45
2023-05-09T18:02:10.738Z,25.46
2023-05-09T18:04:37.470Z,25.37
2023-05-09T18:07:04.175Z,25.26
2023-05-09T18:09:30.992Z,25.27
2023-05-09T18:11:59.032Z,25.16
2023-05-09T18:14:25.567Z,25.26
2023-05-09T18:16:52.065Z,25.25
2023-05-09T18:19:18.737Z,25.16
2023-05-09T18:21:45.486Z,25.06
2023-05-09T18:24:12.006Z,25.08
2023-05-09T18:26:38.585Z,24.95
2023-05-09T18:29:05.379Z,24.90
2023-05-09T18:31:38.504Z,24.79
2023-05-09T18:34:05.931Z,24.79
2023-05-09T18:36:32.663Z,24.73
2023-05-09T18:38:59.444Z,24.66
2023-05-09T18:41:26.560Z,24.63
2023-05-09T18:43:53.147Z,24.55
2023-05-09T18:46:22.256Z,24.55
2023-05-09T18:48:51.138Z,24.46
2023-05-09T18:51:18.436Z,24.43
2023-05-09T18:53:45.007Z,24.33
2023-05-09T18:56:11.540Z,24.29
2023-05-09T18:58:38.196Z,24.15
2023-05-09T19:01:05.222Z,24.16
2023-05-09T19:03:31.825Z,24.06
2023-05-09T19:05:58.691Z,24.00
2023-05-09T19:08:26.240Z,24.05
2023-05-09T19:10:52.773Z,23.89
2023-05-09T19:13:19.375Z,23.83
2023-05-09T19:15:47.212Z,23.90
2023-05-09T19:18:14.267Z,23.77
2023-05-09T19:20:40.848Z,23.74
2023-05-09T19:23:07.365Z,23.74
2023-05-09T19:25:33.949Z,23.60
2023-05-09T19:28:00.511Z,23.59
2023-05-09T19:30:27.027Z,23.57
2023-05-09T19:32:53.598Z,23.59
2023-05-09T19:35:20.225Z,23.50
2023-05-09T19:37:46.732Z,23.46
2023-05-09T19:40:13.390Z,23.34
2023-05-09T19:42:41.867Z,23.10
2023-05-09T19:45:08.893Z,23.29
2023-05-09T19:47:35.539Z,23.32
2023-05-09T19:50:02.220Z,23.18
2023-05-09T19:52:29.668Z,23.20
2023-05-09T19:54:56.167Z,23.19
2023-05-09T19:57:22.854Z,23.19
2023-05-09T19:59:49.394Z,23.15
2023-05-09T20:02:15.897Z,23.01
2023-05-09T20:04:49.473Z,22.99
2023-05-09T20:07:16.909Z,22.91
2023-05-09T20:09:43.501Z,22.89
2023-05-09T20:12:10.198Z,22.95
2023-05-09T20:14:36.983Z,22.76
2023-05-09T20:17:05.199Z,22.77
2023-05-09T20:19:33.098Z,22.73
2023-05-09T20:22:01.104Z,22.76
2023-05-09T20:24:27.940Z,22.65
2023-05-09T20:26:57.357Z,22.70
2023-05-09T20:29:24.788Z,22.70
2023-05-09T20:31:51.464Z,22.63
2023-05-09T20:34:19.591Z,22.58
2023-05-09T20:36:52.175Z,22.70
2023-05-09T20:39:19.397Z,22.63
2023-05-09T20:41:47.003Z,22.56
2023-05-09T20:44:14.558Z,22.46
2023-05-09T20:46:41.628Z,22.49
2023-05-09T20:49:08.118Z,22.40
2023-05-09T20:51:34.597Z,22.26
2023-05-09T20:54:01.232Z,22.28
2023-05-09T20:56:28.743Z,22.36
2023-05-09T20:58:56.200Z,22.42
2023-05-09T21:01:22.861Z,22.41
2023-05-09T21:03:49.475Z,22.35
2023-05-09T21:06:15.948Z,22.36
2023-05-09T21:08:43.310Z,22.19
2023-05-09T21:11:09.949Z,22.29
2023-05-09T21:13:37.249Z,22.33
2023-05-09T21:16:03.841Z,22.20
2023-05-09T21:18:30.374Z,22.04
2023-05-09T21:20:56.948Z,22.01
2023-05-09T21:23:23.443Z,22.13
2023-05-09T21:25:49.929Z,22.00
2023-05-09T21:28:17.334Z,21.93
2023-05-09T21:30:43.870Z,21.90
2023-05-09T21:33:10.668Z,21.88
2023-05-09T21:35:37.261Z,21.98
2023-05-09T21:38:03.735Z,21.96
2023-05-09T21:40:30.304Z,21.83
2023-05-09T21:42:56.807Z,21.84
2023-05-09T21:45:23.373Z,21.70
2023-05-09T21:47:49.996Z,21.74
2023-05-09T21:50:16.868Z,21.80
2023-05-09T21:52:43.753Z,21.82
2023-05-09T21:55:10.271Z,21.68
2023-05-09T21:57:36.804Z,21.69
2023-05-09T22:00:05.399Z,21.69
2023-05-09T22:02:40.627Z,21.70
2023-05-09T22:05:07.765Z,21.65
2023-05-09T22:07:34.470Z,21.67
2023-05-09T22:10:00.956Z,21.55
2023-05-09T22:12:27.483Z,21.55
2023-05-09T22:14:56.745Z,21.43
2023-05-09T22:17:24.525Z,21.38
2023-05-09T22:19:51.227Z,21.38
2023-05-09T22:22:17.732Z,21.32
2023-05-09T22:24:44.296Z,21.32
2023-05-09T22:27:11.002Z,21.17
2023-05-09T22:29:37.670Z,21.23
2023-05-09T22:32:04.754Z,21.13
2023-05-09T22:34:31.378Z,21.09
2023-05-09T22:36:57.903Z,21.25
2023-05-09T22:39:24.412Z,21.09
2023-05-09T22:41:50.960Z,21.18
2023-05-09T22:44:17.481Z,20.99
2023-05-09T22:46:44.006Z,21.06
2023-05-09T22:49:10.504Z,21.06
2023-05-09T22:51:37.086Z,21.02
2023-05-09T22:54:03.651Z,20.92
2023-05-09T22:56:30.172Z,20.92
2023-05-09T22:58:56.666Z,20.82
2023-05-09T23:01:23.216Z,20.81
2023-05-09T23:03:49.707Z,20.92
2023-05-09T23:06:16.250Z,20.90
2023-05-09T23:08:42.786Z,20.83
2023-05-09T23:11:09.302Z,20.83
2023-05-09T23:13:35.782Z,20.69
2023-05-09T23:16:02.590Z,20.70
2023-05-09T23:18:29.332Z,20.73
2023-05-09T23:20:55.803Z,20.72
2023-05-09T23:23:22.418Z,20.74
2023-05-09T23:25:48.906Z,20.69
2023-05-09T23:28:15.489Z,20.65
2023-05-09T23:30:41.985Z,20.56
2023-05-09T23:33:08.565Z,20.51
2023-05-09T23:35:35.076Z,20.49
2023-05-09T23:38:01.689Z,20.44
2023-05-09T23:40:28.218Z,20.45
2023-05-09T23:42:54.739Z,20.23
2023-05-09T23:45:21.296Z,20.30
2023-05-09T23:47:47.870Z,20.37
2023-05-09T23:50:14.613Z,20.36
2023-05-09T23:52:42.034Z,20.26
2023-05-09T23:55:09.311Z,20.27
2023-05-09T23:57:35.922Z,20.27
